createdAt,value
2023-03-11T00:01:45.627Z,79.87
2023-03-11T00:04:13.296Z,79.72
2023-03-11T00:06:40.337Z,79.77
2023-03-11T00:09:07.412Z,79.90
2023-03-11T00:11:34.344Z,80.21
2023-03-11T00:14:01.335Z,80.46
2023-03-11T00:16:28.362Z,80.53
2023-03-11T00:18:55.492Z,80.27
2023-03-11T00:21:22.480Z,80.53
2023-03-11T00:23:49.520Z,80.58
2023-03-11T00:26:16.535Z,80.43
2023-03-11T00:28:43.595Z,80.83
2023-03-11T00:31:13.038Z,80.65
2023-03-11T00:33:39.981Z,80.87
2023-03-11T00:36:07.536Z,81.27
2023-03-11T00:38:34.520Z,80.61
2023-03-11T00:41:02.065Z,80.90
2023-03-11T00:43:31.635Z,81.17
2023-03-11T00:45:58.608Z,81.14
2023-03-11T00:48:25.609Z,81.12
2023-03-11T00:50:52.629Z,80.83
2023-03-11T00:53:19.652Z,81.02
2023-03-11T00:55:46.760Z,81.18
2023-03-11T00:58:14.010Z,81.32
2023-03-11T01:00:45.427Z,81.40
2023-03-11T01:03:12.444Z,81.36
2023-03-11T01:05:39.541Z,81.74
2023-03-11T01:08:06.530Z,81.72
2023-03-11T01:10:33.979Z,81.65
2023-03-11T01:13:01.455Z,81.78
2023-03-11T01:15:33.631Z,81.53
2023-03-11T01:18:01.104Z,81.67
2023-03-11T01:20:28.252Z,81.81
2023-03-11T01:22:55.351Z,81.44
2023-03-11T01:25:22.823Z,81.60
2023-03-11T01:27:50.649Z,81.13
2023-03-11T01:30:20.071Z,81.61
2023-03-11T01:32:47.137Z,81.35
2023-03-11T01:35:15.116Z,81.20
2023-03-11T01:37:42.173Z,80.99
2023-03-11T01:40:12.690Z,81.15
2023-03-11T01:42:39.618Z,81.26
2023-03-11T01:45:41.715Z,81.40
2023-03-11T01:48:10.896Z,81.51
2023-03-11T01:50:44.815Z,81.16
2023-03-11T01:53:12.015Z,81.36
2023-03-11T01:55:40.642Z,81.24
2023-03-11T01:58:09.289Z,81.36
2023-03-11T02:00:37.431Z,81.56
2023-03-11T02:03:09.624Z,81.33
2023-03-11T02:05:36.606Z,81.24
2023-03-11T02:08:03.716Z,81.33
2023-03-11T02:10:33.788Z,81.36
2023-03-11T02:13:00.954Z,81.33
2023-03-11T02:15:29.620Z,81.43
2023-03-11T02:17:57.948Z,81.67
2023-03-11T02:20:40.929Z,81.65
2023-03-11T02:23:14.329Z,81.60
2023-03-11T02:25:50.210Z,81.69
2023-03-11T02:28:17.318Z,81.89
2023-03-11T02:30:44.484Z,81.50
2023-03-11T02:33:12.013Z,82.07
2023-03-11T02:35:39.030Z,82.11
2023-03-11T02:38:06.000Z,81.99
2023-03-11T02:40:44.833Z,82.07
2023-03-11T02:43:13.791Z,82.15
2023-03-11T02:45:40.965Z,82.12
2023-03-11T02:48:09.542Z,82.24
2023-03-11T02:50:37.415Z,82.29
2023-03-11T02:53:05.613Z,82.46
2023-03-11T02:55:32.832Z,82.53
2023-03-11T02:58:00.449Z,82.53
2023-03-11T03:00:27.866Z,82.99
2023-03-11T03:03:00.774Z,82.68
2023-03-11T03:05:28.565Z,82.81
2023-03-11T03:07:57.438Z,82.80
2023-03-11T03:10:24.462Z,82.89
2023-03-11T03:12:51.391Z,82.90
2023-03-11T03:15:18.599Z,82.57
2023-03-11T03:17:46.440Z,82.97
2023-03-11T03:20:14.338Z,82.93
2023-03-11T03:22:46.315Z,82.97
2023-03-11T03:25:16.127Z,82.71
2023-03-11T03:27:43.152Z,82.92
2023-03-11T03:30:11.054Z,83.05
2023-03-11T03:32:39.226Z,82.98
2023-03-11T03:35:10.124Z,83.25
2023-03-11T03:38:03.025Z,83.02
2023-03-11T03:40:30.050Z,83.15
2023-03-11T03:42:59.441Z,83.16
2023-03-11T03:45:27.969Z,82.95
2023-03-11T03:47:55.016Z,83.24
2023-03-11T03:50:24.500Z,83.22
2023-03-11T03:52:53.535Z,83.37
2023-03-11T03:55:22.035Z,83.24
2023-03-11T03:57:49.312Z,82.76
2023-03-11T04:00:18.964Z,82.95
2023-03-11T04:02:52.196Z,83.18
2023-03-11T04:05:27.797Z,83.21
2023-03-11T04:07:55.669Z,83.22
2023-03-11T04:10:23.197Z,83.04
2023-03-11T04:12:50.566Z,82.93
2023-03-11T04:15:17.664Z,83.37
2023-03-11T04:17:45.040Z,83.25
2023-03-11T04:20:12.938Z,82.99
2023-03-11T04:22:41.386Z,82.96
2023-03-11T04:25:08.801Z,82.94
2023-03-11T04:27:38.552Z,83.23
2023-03-11T04:30:07.143Z,82.97
2023-03-11T04:32:34.493Z,83.20
2023-03-11T04:35:03.291Z,83.31
2023-03-11T04:37:30.449Z,82.89
2023-03-11T04:39:58.022Z,83.02
2023-03-11T04:42:25.153Z,83.28
2023-03-11T04:44:52.936Z,83.62
2023-03-11T04:47:21.914Z,83.26
2023-03-11T04:49:49.163Z,83.46
2023-03-11T04:52:16.946Z,83.86
2023-03-11T04:54:43.965Z,84.11
2023-03-11T04:57:11.069Z,84.28
2023-03-11T04:59:42.144Z,85.03
2023-03-11T05:02:12.460Z,84.95
2023-03-11T05:04:43.663Z,85.40
2023-03-11T05:07:10.731Z,85.54
2023-03-11T05:09:37.850Z,85.47
2023-03-11T05:12:05.782Z,85.86
2023-03-11T05:14:34.798Z,86.11
2023-03-11T05:17:01.900Z,86.24
2023-03-11T05:19:32.413Z,86.82
2023-03-11T05:22:03.846Z,86.97
2023-03-11T05:24:31.542Z,87.15
2023-03-11T05:26:59.129Z,87.48
2023-03-11T05:29:26.563Z,87.63
2023-03-11T05:31:54.470Z,87.87
2023-03-11T05:34:21.552Z,88.36
2023-03-11T05:36:48.898Z,88.31
2023-03-11T05:39:16.741Z,88.65
2023-03-11T05:41:43.785Z,88.95
2023-03-11T05:44:10.948Z,89.06
2023-03-11T05:46:38.072Z,89.01
2023-03-11T05:49:06.782Z,88.90
2023-03-11T05:51:33.781Z,89.08
2023-03-11T05:54:01.028Z,89.22
2023-03-11T05:56:37.694Z,89.14
2023-03-11T05:59:05.138Z,89.54
2023-03-11T06:01:34.877Z,89.56
2023-03-11T06:04:02.076Z,89.43
2023-03-11T06:06:29.204Z,89.53
2023-03-11T06:08:56.634Z,89.75
2023-03-11T06:11:27.321Z,89.92
2023-03-11T06:13:55.132Z,89.86
2023-03-11T06:16:24.494Z,89.48
2023-03-11T06:18:52.360Z,89.78
2023-03-11T06:21:21.317Z,89.75
2023-03-11T06:23:48.534Z,89.73
2023-03-11T06:26:17.953Z,89.83
2023-03-11T06:28:46.662Z,89.31
2023-03-11T06:31:22.377Z,89.42
2023-03-11T06:33:49.451Z,89.05
2023-03-11T06:36:17.417Z,89.19
2023-03-11T06:38:46.237Z,88.88
2023-03-11T06:41:14.653Z,88.87
2023-03-11T06:43:41.724Z,88.84
2023-03-11T06:46:21.944Z,88.77
2023-03-11T06:48:53.396Z,89.75
2023-03-11T06:51:22.222Z,90.93
2023-03-11T06:53:50.728Z,91.47
2023-03-11T06:56:18.905Z,91.78
2023-03-11T06:58:50.254Z,91.97
2023-03-11T07:01:24.762Z,92.30
2023-03-11T07:03:53.524Z,92.44
2023-03-11T07:06:24.113Z,92.83
2023-03-11T07:08:52.914Z,92.60
2023-03-11T07:11:26.935Z,92.47
2023-03-11T07:13:59.549Z,92.18
2023-03-11T07:16:30.561Z,92.48
2023-03-11T07:19:04.248Z,92.51
2023-03-11T07:21:31.984Z,92.55
2023-03-11T07:24:00.370Z,92.87
2023-03-11T07:26:27.553Z,93.20
2023-03-11T07:28:54.884Z,93.40
2023-03-11T07:31:26.173Z,93.55
2023-03-11T07:33:53.251Z,93.64
2023-03-11T07:36:22.721Z,93.87
2023-03-11T07:38:49.947Z,94.14
2023-03-11T07:41:17.061Z,94.57
2023-03-11T07:43:44.302Z,94.40
2023-03-11T07:46:13.469Z,94.52
2023-03-11T07:48:41.028Z,94.48
2023-03-11T07:51:13.067Z,94.42
2023-03-11T07:53:42.796Z,94.99
2023-03-11T07:56:10.803Z,95.02
2023-03-11T07:58:37.893Z,95.51
2023-03-11T08:01:05.627Z,95.90
2023-03-11T08:03:34.941Z,96.40
2023-03-11T08:06:02.063Z,97.35
2023-03-11T08:08:29.154Z,97.61
2023-03-11T08:10:56.156Z,97.55
2023-03-11T08:13:23.172Z,97.77
2023-03-11T08:15:50.195Z,97.92
2023-03-11T08:18:17.283Z,97.87
2023-03-11T08:20:45.528Z,98.24
2023-03-11T08:23:12.459Z,98.91
2023-03-11T08:25:40.287Z,98.84
2023-03-11T08:28:07.869Z,98.31
2023-03-11T08:30:35.145Z,98.33
2023-03-11T08:33:02.201Z,97.87
2023-03-11T08:35:29.194Z,97.73
2023-03-11T08:37:56.353Z,97.23
2023-03-11T08:40:23.485Z,97.00
2023-03-11T08:42:50.525Z,97.18
2023-03-11T08:45:17.537Z,96.79
2023-03-11T08:47:44.640Z,96.81
2023-03-11T08:50:16.882Z,96.46
2023-03-11T08:52:43.925Z,96.16
2023-03-11T08:55:18.647Z,95.39
2023-03-11T08:57:45.568Z,95.69
2023-03-11T09:00:13.325Z,95.65
2023-03-11T09:02:41.771Z,95.48
2023-03-11T09:05:09.460Z,95.20
2023-03-11T09:07:36.594Z,94.94
2023-03-11T09:10:03.924Z,94.69
2023-03-11T09:12:31.025Z,95.11
2023-03-11T09:14:58.151Z,94.97
2023-03-11T09:17:25.130Z,95.11
2023-03-11T09:19:52.049Z,95.27
2023-03-11T09:22:19.154Z,95.06
2023-03-11T09:24:46.246Z,95.27
2023-03-11T09:27:13.733Z,95.68
2023-03-11T09:29:40.960Z,95.74
2023-03-11T09:32:07.934Z,96.09
2023-03-11T09:34:34.954Z,96.40
2023-03-11T09:37:01.985Z,96.96
2023-03-11T09:39:29.095Z,97.29
2023-03-11T09:42:03.819Z,97.36
2023-03-11T09:44:44.239Z,97.31
2023-03-11T09:47:46.593Z,97.41
2023-03-11T09:50:26.732Z,97.69
2023-03-11T09:53:15.900Z,97.42
2023-03-11T09:55:45.360Z,97.15
2023-03-11T09:58:22.880Z,97.57
2023-03-11T10:00:52.101Z,97.10
2023-03-11T10:03:40.001Z,97.31
2023-03-11T10:06:17.989Z,97.27
2023-03-11T10:09:13.013Z,97.30
2023-03-11T10:11:47.200Z,97.21
2023-03-11T10:14:50.779Z,97.40
2023-03-11T10:17:39.779Z,97.26
2023-03-11T10:20:13.024Z,97.21
2023-03-11T10:22:49.917Z,96.83
2023-03-11T10:25:17.381Z,96.83
2023-03-11T10:27:57.819Z,96.79
2023-03-11T10:30:34.007Z,96.65
2023-03-11T10:33:06.968Z,96.90
2023-03-11T10:35:44.856Z,96.54
2023-03-11T10:38:17.486Z,96.53
2023-03-11T10:40:45.741Z,96.56
2023-03-11T10:43:31.924Z,96.36
2023-03-11T10:45:58.845Z,96.12
2023-03-11T10:48:26.294Z,96.26
2023-03-11T10:50:53.348Z,95.72
2023-03-11T10:53:21.052Z,95.12
2023-03-11T10:55:49.967Z,95.97
2023-03-11T10:58:22.073Z,96.00
2023-03-11T11:01:01.993Z,95.26
2023-03-11T11:03:29.152Z,95.27
2023-03-11T11:06:04.707Z,95.10
2023-03-11T11:08:32.083Z,95.35
2023-03-11T11:11:00.685Z,94.85
2023-03-11T11:13:31.284Z,94.92
2023-03-11T11:16:20.466Z,94.21
2023-03-11T11:18:52.601Z,94.35
2023-03-11T11:21:39.416Z,93.81
2023-03-11T11:24:22.638Z,93.78
2023-03-11T11:27:17.752Z,93.75
2023-03-11T11:29:44.870Z,93.73
2023-03-11T11:32:20.872Z,93.78
2023-03-11T11:34:58.504Z,93.26
2023-03-11T11:37:27.012Z,93.48
2023-03-11T11:39:56.249Z,93.49
2023-03-11T11:42:23.670Z,93.15
2023-03-11T11:44:53.427Z,93.23
2023-03-11T11:47:30.211Z,93.08
2023-03-11T11:50:01.509Z,92.79
2023-03-11T11:52:31.849Z,92.58
2023-03-11T11:55:08.408Z,92.20
2023-03-11T11:57:35.532Z,92.79
2023-03-11T12:00:05.314Z,92.83
2023-03-11T12:03:16.134Z,93.01
2023-03-11T12:06:07.254Z,93.05
2023-03-11T12:08:43.029Z,92.49
2023-03-11T12:11:18.345Z,92.76
2023-03-11T12:14:18.190Z,92.85
2023-03-11T12:17:03.756Z,92.59
2023-03-11T12:19:35.159Z,92.96
2023-03-11T12:22:29.342Z,93.20
2023-03-11T12:25:13.988Z,92.53
2023-03-11T12:27:46.606Z,93.55
2023-03-11T12:30:16.758Z,92.88
2023-03-11T12:32:50.023Z,93.20
2023-03-11T12:35:21.345Z,93.04
2023-03-11T12:38:13.517Z,93.58
2023-03-11T12:40:47.252Z,92.96
2023-03-11T12:43:35.501Z,93.49
2023-03-11T12:46:09.916Z,93.33
2023-03-11T12:48:46.182Z,93.25
2023-03-11T12:51:31.704Z,93.32
2023-03-11T12:53:58.683Z,93.76
2023-03-11T12:56:29.219Z,93.54
2023-03-11T12:59:30.060Z,93.44
2023-03-11T13:02:01.204Z,93.57
2023-03-11T13:04:58.409Z,93.91
2023-03-11T13:07:28.226Z,93.38
2023-03-11T13:10:07.276Z,93.49
2023-03-11T13:12:47.868Z,93.60
2023-03-11T13:15:20.767Z,93.68
2023-03-11T13:18:12.649Z,93.93
2023-03-11T13:20:41.464Z,93.31
2023-03-11T13:23:14.208Z,94.12
2023-03-11T13:26:02.195Z,93.85
2023-03-11T13:28:58.343Z,94.43
2023-03-11T13:31:33.756Z,94.55
2023-03-11T13:34:30.302Z,94.01
2023-03-11T13:37:12.291Z,94.42
2023-03-11T13:40:24.430Z,94.13
2023-03-11T13:42:55.973Z,94.05
2023-03-11T13:45:29.235Z,93.92
2023-03-11T13:48:20.676Z,93.64
2023-03-11T13:51:08.507Z,94.04
2023-03-11T13:53:56.175Z,93.81
2023-03-11T13:56:27.461Z,93.74
2023-03-11T13:58:54.484Z,93.59
2023-03-11T14:01:21.527Z,93.90
2023-03-11T14:03:48.635Z,93.71
2023-03-11T14:06:19.855Z,93.11
2023-03-11T14:08:54.772Z,93.50
2023-03-11T14:11:26.634Z,93.24
2023-03-11T14:13:54.162Z,93.13
2023-03-11T14:16:35.316Z,93.19
2023-03-11T14:19:15.427Z,93.13
2023-03-11T14:21:43.549Z,93.34
2023-03-11T14:24:25.481Z,93.51
2023-03-11T14:26:56.147Z,93.63
2023-03-11T14:29:45.326Z,93.79
2023-03-11T14:32:29.060Z,93.41
2023-03-11T14:34:56.119Z,93.23
2023-03-11T14:37:36.832Z,93.61
2023-03-11T14:40:05.105Z,92.97
2023-03-11T14:42:36.665Z,93.73
2023-03-11T14:45:06.955Z,93.42
2023-03-11T14:47:35.817Z,93.70
2023-03-11T14:50:04.875Z,93.04
2023-03-11T14:52:37.804Z,93.11
2023-03-11T14:55:07.299Z,93.37
2023-03-11T14:57:39.928Z,93.67
2023-03-11T15:00:11.395Z,93.89
2023-03-11T15:02:43.886Z,93.57
2023-03-11T15:05:17.919Z,93.70
2023-03-11T15:07:45.958Z,93.81
2023-03-11T15:10:13.590Z,93.77
2023-03-11T15:12:44.091Z,94.25
2023-03-11T15:15:29.592Z,93.85
2023-03-11T15:17:58.361Z,94.43
2023-03-11T15:20:35.832Z,94.41
2023-03-11T15:23:04.599Z,94.09
2023-03-11T15:25:33.486Z,94.03
2023-03-11T15:28:14.887Z,94.33
2023-03-11T15:30:41.899Z,94.71
2023-03-11T15:33:21.009Z,94.63
2023-03-11T15:35:48.742Z,94.43
2023-03-11T15:38:23.772Z,95.37
2023-03-11T15:40:58.032Z,94.91
2023-03-11T15:43:32.541Z,94.81
2023-03-11T15:46:01.171Z,94.76
2023-03-11T15:48:29.928Z,94.83
2023-03-11T15:51:00.422Z,95.11
2023-03-11T15:56:37.634Z,95.32
2023-03-11T15:59:04.662Z,95.31
2023-03-11T16:01:31.707Z,95.84
2023-03-11T16:03:58.702Z,95.76
2023-03-11T16:06:25.745Z,95.52
2023-03-11T16:08:53.120Z,95.62
2023-03-11T16:11:20.085Z,95.07
2023-03-11T16:13:47.073Z,95.95
2023-03-11T16:16:17.626Z,95.94
2023-03-11T16:18:44.677Z,95.48
2023-03-11T16:21:15.952Z,95.43
2023-03-11T16:23:51.651Z,95.95
2023-03-11T16:26:19.352Z,96.08
2023-03-11T16:28:46.259Z,95.78
2023-03-11T16:31:13.383Z,95.37
2023-03-11T16:33:40.415Z,96.13
2023-03-11T16:36:07.803Z,95.51
2023-03-11T16:38:43.008Z,95.34
2023-03-11T16:41:10.034Z,95.83
2023-03-11T16:43:37.049Z,96.84
2023-03-11T16:46:04.390Z,96.38
2023-03-11T16:48:31.362Z,96.23
2023-03-11T16:50:58.326Z,96.58
2023-03-11T16:53:26.460Z,96.74
2023-03-11T16:55:53.663Z,96.27
2023-03-11T16:58:20.690Z,96.53
2023-03-11T17:00:47.655Z,96.06
2023-03-11T17:03:15.916Z,96.53
2023-03-11T17:05:43.089Z,96.43
2023-03-11T17:08:10.577Z,96.28
2023-03-11T17:10:38.593Z,96.38
2023-03-11T17:13:06.425Z,96.23
2023-03-11T17:15:35.311Z,97.24
2023-03-11T17:18:02.428Z,97.02
2023-03-11T17:20:29.433Z,97.13
2023-03-11T17:22:56.404Z,96.96
2023-03-11T17:25:23.537Z,97.41
2023-03-11T17:27:50.626Z,97.97
2023-03-11T17:30:30.462Z,97.62
2023-03-11T17:33:02.995Z,98.55
2023-03-11T17:35:29.974Z,98.50
2023-03-11T17:37:57.053Z,98.13
2023-03-11T17:40:24.105Z,98.42
2023-03-11T17:42:51.063Z,99.10
2023-03-11T17:45:18.217Z,98.68
2023-03-11T17:47:45.126Z,98.74
2023-03-11T17:50:12.777Z,99.03
2023-03-11T17:52:39.749Z,98.73
2023-03-11T17:55:10.185Z,98.48
2023-03-11T17:57:45.105Z,99.14
2023-03-11T18:00:15.047Z,98.72
2023-03-11T18:02:42.342Z,98.93
2023-03-11T18:05:09.550Z,99.24
2023-03-11T18:07:39.205Z,98.93
2023-03-11T18:10:07.119Z,98.67
2023-03-11T18:12:34.426Z,99.26
2023-03-11T18:15:04.312Z,98.57
2023-03-11T18:17:31.972Z,99.00
2023-03-11T18:19:59.640Z,99.47
2023-03-11T18:22:27.043Z,98.79
2023-03-11T18:24:54.679Z,98.86
2023-03-11T18:27:21.713Z,99.07
2023-03-11T18:29:48.764Z,99.54
2023-03-11T18:32:15.845Z,99.71
2023-03-11T18:34:43.150Z,99.36
2023-03-11T18:37:10.129Z,99.75
2023-03-11T18:39:37.172Z,99.74
2023-03-11T18:42:05.578Z,99.82
2023-03-11T18:44:32.983Z,100.00
2023-03-11T18:47:01.089Z,99.71
2023-03-11T18:49:29.226Z,100.00
2023-03-11T18:51:56.380Z,100.00
2023-03-11T18:54:23.377Z,100.00
2023-03-11T18:56:50.460Z,100.00
2023-03-11T18:59:17.622Z,100.00
2023-03-11T19:01:44.601Z,100.00
2023-03-11T19:04:11.750Z,100.00
2023-03-11T19:06:38.943Z,100.00
2023-03-11T19:09:06.770Z,100.00
2023-03-11T19:11:33.763Z,100.00
2023-03-11T19:14:00.832Z,100.00
2023-03-11T19:16:28.014Z,100.00
2023-03-11T19:18:55.349Z,100.00
2023-03-11T19:21:22.380Z,100.00
2023-03-11T19:23:55.178Z,100.00
2023-03-11T19:26:33.736Z,100.00
2023-03-11T19:29:04.728Z,100.00
2023-03-11T19:31:37.879Z,100.00
2023-03-11T19:34:04.845Z,100.00
2023-03-11T19:36:31.806Z,100.00
2023-03-11T19:38:58.804Z,100.00
2023-03-11T19:41:25.888Z,100.00
2023-03-11T19:43:53.059Z,100.00
2023-03-11T19:46:21.299Z,100.00
2023-03-11T19:48:48.394Z,100.00
2023-03-11T19:51:17.330Z,100.00
2023-03-11T19:53:44.549Z,100.00
2023-03-11T19:56:12.095Z,100.00
2023-03-11T19:58:40.482Z,100.00
2023-03-11T20:01:07.436Z,100.00
2023-03-11T20:03:34.575Z,100.00
2023-03-11T20:06:05.790Z,100.00
2023-03-11T20:08:36.757Z,100.00
2023-03-11T20:11:04.645Z,100.00
2023-03-11T20:13:31.875Z,100.00
2023-03-11T20:16:10.206Z,100.00
2023-03-11T20:18:37.406Z,100.00
2023-03-11T20:21:06.064Z,100.00
2023-03-11T20:23:33.427Z,100.00
2023-03-11T20:26:00.427Z,100.00
2023-03-11T20:28:27.430Z,100.00
2023-03-11T20:30:55.439Z,100.00
2023-03-11T20:33:22.892Z,100.00
2023-03-11T20:35:49.966Z,100.00
2023-03-11T20:38:18.048Z,100.00
2023-03-11T20:40:45.082Z,100.00
2023-03-11T20:43:12.112Z,100.00
2023-03-11T20:45:39.122Z,100.00
2023-03-11T20:48:06.299Z,100.00
2023-03-11T20:50:33.294Z,100.00
2023-03-11T20:53:00.336Z,100.00
2023-03-11T20:55:27.460Z,100.00
2023-03-11T20:57:54.533Z,100.00
2023-03-11T21:00:21.901Z,100.00
2023-03-11T21:02:49.083Z,100.00
2023-03-11T21:05:16.149Z,100.00
2023-03-11T21:07:43.263Z,100.00
2023-03-11T21:10:11.577Z,100.00
2023-03-11T21:12:38.655Z,100.00
2023-03-11T21:15:06.555Z,100.00
2023-03-11T21:17:34.040Z,100.00
2023-03-11T21:20:01.077Z,100.00
2023-03-11T21:22:28.054Z,100.00
2023-03-11T21:24:55.404Z,100.00
2023-03-11T21:27:26.476Z,100.00
2023-03-11T21:29:56.955Z,100.00
2023-03-11T21:32:24.977Z,100.00
2023-03-11T21:34:55.466Z,100.00
2023-03-11T21:37:22.578Z,100.00
2023-03-11T21:39:49.914Z,100.00
2023-03-11T21:42:16.899Z,100.00
2023-03-11T21:44:43.814Z,100.00
2023-03-11T21:47:10.985Z,100.00
2023-03-11T21:49:39.909Z,100.00
2023-03-11T21:52:07.049Z,100.00
2023-03-11T21:54:34.280Z,100.00
2023-03-11T21:57:01.508Z,100.00
2023-03-11T21:59:29.439Z,100.00
2023-03-11T22:02:01.280Z,100.00
2023-03-11T22:04:29.651Z,100.00
2023-03-11T22:06:57.418Z,100.00
2023-03-11T22:09:25.927Z,100.00
2023-03-11T22:11:53.468Z,100.00
2023-03-11T22:14:20.565Z,100.00
2023-03-11T22:16:47.849Z,100.00
2023-03-11T22:19:14.853Z,100.00
2023-03-11T22:21:42.126Z,100.00
2023-03-11T22:24:09.151Z,100.00
2023-03-11T22:26:36.273Z,100.00
2023-03-11T22:29:04.162Z,100.00
2023-03-11T22:31:31.507Z,100.00
2023-03-11T22:33:58.547Z,100.00
2023-03-11T22:36:25.574Z,100.00
2023-03-11T22:38:52.622Z,100.00
2023-03-11T22:41:20.423Z,100.00
2023-03-11T22:43:47.534Z,100.00
2023-03-11T22:46:14.620Z,100.00
2023-03-11T22:48:41.753Z,100.00
2023-03-11T22:51:08.885Z,100.00
2023-03-11T22:53:35.920Z,100.00
2023-03-11T22:56:08.830Z,100.00
2023-03-11T22:58:35.967Z,100.00
2023-03-11T23:01:04.246Z,100.00
2023-03-11T23:03:32.748Z,100.00
2023-03-11T23:06:00.953Z,100.00
2023-03-11T23:08:27.863Z,100.00
2023-03-11T23:10:55.008Z,100.00
2023-03-11T23:13:22.120Z,100.00
2023-03-11T23:15:49.131Z,100.00
2023-03-11T23:18:16.263Z,100.00
2023-03-11T23:20:43.449Z,100.00
2023-03-11T23:23:10.568Z,100.00
2023-03-11T23:25:37.978Z,100.00
2023-03-11T23:28:05.820Z,100.00
2023-03-11T23:30:33.035Z,100.00
2023-03-11T23:33:02.929Z,100.00
2023-03-11T23:35:30.657Z,100.00
2023-03-11T23:37:57.776Z,100.00
2023-03-11T23:40:24.920Z,100.00
2023-03-11T23:42:52.069Z,100.00
2023-03-11T23:45:19.019Z,100.00
2023-03-11T23:47:46.057Z,100.00
2023-03-11T23:50:12.976Z,100.00
2023-03-11T23:52:40.206Z,100.00
2023-03-11T23:55:07.847Z,100.00
2023-03-11T23:57:36.094Z,100.00
